Terminal Aerodrome Forecast
Issued by NWS

Home | Current Version | Previous Version | Text Only | Print | Product List | Glossary On
Versions: 1 2 3 4 5 6 7 8 9 10 11 12 13 14
000
FTUS42 KRAH 180530
TAFRWI
TAF
KRWI 180530Z 1806/1906 VRB02KT P6SM BKN035 OVC050
     FM181000 00000KT P6SM SCT040
      TEMPO 1810/1813 BKN025
     FM181600 25005KT P6SM BKN250
     FM182300 00000KT P6SM FEW200=

USA.gov is the U.S. government's official web portal to all federal, state and local government web resources and services.